Latest Coastal Weather Observations for Albion Park

IDN60701

Issued at 2:21 pm EDT Friday 20 October 2017 (issued every 10 minutes, with the page automatically refreshed every 10 minutes)

About coastal observations | Map of coastal stations | Coastal observations for NSW | Marine services | Other Formats
Station Details ID: 068241 Name: WOLLONGONG AIRPORT Lat: -34.56 Lon: 150.79 Height: 8.0 m
Data from the previous 72 hours. | See also: Recent months at Albion Park
Date/Time
EDT
Temp
°C
Wind Pressure Rain since
9am
mm
Weather Cloud Vis
km
Sea
Height
m
Swell
Dir  Spd
kts
Gust
kts
hPa Trend Height
m
Period
s
Dir
20/02:11pm 14.5 SSE 10 14 1022.3 - 5.0 - Partly cloudy 10 - - - -
20/02:00pm 14.5 S 12 19 1022.4 - 4.8 - Partly cloudy 8 - - - -
20/01:47pm 14.6 SSE 11 18 1022.2 - 4.6 - Partly cloudy 8 - - - -
20/01:30pm 14.7 S 11 16 1022.3 - 4.4 - Partly cloudy 10 - - - -
20/01:00pm 14.9 SSE 8 14 1022.1 - 4.2 - Partly cloudy 7 - - - -
20/12:45pm 15.1 S 11 15 1022.3 - 4.2 - Partly cloudy 8 - - - -
20/12:30pm 15.1 S 12 18 1022.1 - 4.0 - Partly cloudy 7 - - - -
20/12:28pm 15.1 S 12 18 1022.0 - 4.0 - Partly cloudy 6 - - - -
20/12:13pm 15.4 S 10 16 1022.2 - 3.6 - Partly cloudy 5 - - - -
20/12:00pm 15.3 SSE 8 12 1022.2 - 3.2 Rain Cloudy 7 - - - -
20/11:56am 15.4 S 8 12 1022.3 - 3.2 - Partly cloudy 6 - - - -
20/11:30am 15.4 S 8 15 1022.4 - 2.4 - Partly cloudy 4 - - - -
20/11:25am 15.6 SSW 8 14 1022.3 - 2.0 - Partly cloudy 5 - - - -
20/11:00am 15.7 S 7 12 1022.2 - 1.2 - Partly cloudy 10 - - - -
20/10:55am 15.7 S 8 12 1022.2 - 1.2 - Partly cloudy 10 - - - -
20/10:32am 15.6 S 9 15 1022.0 - 1.0 - Partly cloudy 5 - - - -
20/10:30am 15.6 S 8 15 1021.9 - 0.8 - Partly cloudy 5 - - - -
20/10:27am 15.6 S 7 15 1021.9 - 0.8 - Partly cloudy 6 - - - -
20/10:09am 15.6 S 7 10 1022.1 - 0.4 - Partly cloudy 5 - - - -
20/10:01am 16.1 SSW 7 10 1021.8 - 0.0 - Partly cloudy 10 - - - -
20/10:00am 16.2 SSW 7 10 1021.8 - 0.0 - Partly cloudy 10 - - - -
20/09:42am 15.9 S 13 21 1021.5 - 0.0 - Partly cloudy 10 - - - -
20/09:30am 15.6 SSE 13 21 1021.1 - 0.0 - Partly cloudy 10 - - - -
20/09:16am 15.4 S 13 24 1021.2 - 0.0 - Partly cloudy 10 - - - -
20/09:00am 15.9 SSE 15 23 1020.7 - 6.2 Recent precip. Mostly cloudy 10 - - - -
20/08:35am 16.1 SSE 14 22 1020.3 - 6.0 - Partly cloudy 9 - - - -
20/08:30am 16.2 SSE 16 26 1020.3 - 6.0 - Partly cloudy 8 - - - -
20/08:18am 16.9 S 10 26 1020.3 - 5.8 - Partly cloudy 7 - - - -
20/08:17am 17.0 S 9 26 1020.3 - 5.8 - Partly cloudy 7 - - - -
20/08:00am 18.7 SW 1 3 1019.5 - 5.2 - Partly cloudy 8 - - - -
20/07:30am 18.7 SW 3 4 1019.1 - 5.0 - Partly cloudy 7 - - - -
20/07:00am 18.4 NW 2 4 1018.7 - 4.6 - Partly cloudy 8 - - - -
20/06:40am 18.4 SW 1 3 1018.7 - 4.6 - Partly cloudy 6 - - - -
20/06:30am 18.4 SW 3 4 1018.6 - 4.4 - Cloudy 5 - - - -
20/06:12am 18.4 SW 3 3 1018.5 - 3.4 - Cloudy 5 - - - -
20/06:00am 18.5 SW 3 3 1018.3 - 3.2 Rain Mostly cloudy 6 - - - -
20/05:30am 18.4 SW 2 4 1018.0 - 2.6 - Cloudy 9 - - - -
20/05:00am 18.3 CALM 0 0 1017.7 - 2.0 - Cloudy 6 - - - -
20/04:52am 18.3 CALM 0 0 1017.7 - 2.0 - Cloudy 6 - - - -
20/04:30am 18.4 CALM 0 0 1017.8 - 1.4 - Cloudy 5 - - - -
20/04:00am 18.4 WNW 1 3 1017.8 - 0.8 - Partly cloudy 8 - - - -
20/03:30am 18.4 CALM 0 0 1018.0 - 0.6 - Cloudy 9 - - - -
20/03:00am 18.1 SW 2 6 1018.2 - 0.4 Recent precip. Mostly cloudy 9 - - - -
20/02:30am 18.6 SW 1 4 1018.2 - 0.4 - - 9 - - - -
20/02:00am 18.9 CALM 0 0 1018.4 - 0.2 - Partly cloudy 9 - - - -
20/01:30am 19.3 SW 3 5 1018.6 - 0.0 - Cloudy 8 - - - -
20/01:00am 19.7 CALM 0 0 1018.6 - 0.0 - Cloudy 10 - - - -
20/12:30am 19.8 S 5 8 1018.9 - 0.0 - Cloudy 10 - - - -
20/12:00am 19.6 SSW 3 4 1019.0 - 0.0 - Cloudy 10 - - - -
 
Date/Time
EDT
Temp
°C
Wind Pressure Rain since
9am
mm
Weather Cloud Vis
km
Sea
Height
m
Swell
Dir  Spd
kts
Gust
kts
hPa Trend Height
m
Period
s
Dir
19/11:30pm 19.7 SE 3 4 1019.1 - 0.0 - Cloudy 10 - - - -
19/11:00pm 20.0 ENE 3 4 1019.2 - 0.0 - Partly cloudy 10 - - - -
19/10:30pm 20.0 SSE 2 4 1019.4 - 0.0 - Partly cloudy 10 - - - -
19/10:00pm 20.3 ESE 3 5 1019.3 - 0.0 - Partly cloudy 10 - - - -
19/09:30pm 20.7 ENE 4 6 1019.4 - 0.0 - Cloudy 10 - - - -
19/09:00pm 20.9 E 5 6 1019.3 - 0.0 - Cloudy 10 - - - -
19/08:30pm 20.9 E 5 7 1019.1 - 0.0 - Cloudy 10 - - - -
19/08:00pm 21.2 E 7 9 1018.9 - 0.0 - Cloudy 10 - - - -
19/07:30pm 21.8 ENE 6 8 1018.6 - 0.0 - Partly cloudy 10 - - - -
19/07:00pm 22.0 ENE 7 9 1018.2 - 0.0 - Partly cloudy 10 - - - -
19/06:30pm 22.2 ENE 8 11 1018.1 - 0.0 - Partly cloudy 10 - - - -
19/06:00pm 22.4 ENE 9 14 1018.1 - 0.0 - Cloudy 10 - - - -
19/05:30pm 22.8 NE 10 15 1018.2 - 0.0 - - 10 - - - -
19/05:00pm 22.8 NE 11 15 1018.2 - 0.0 - Partly cloudy 10 - - - -
19/04:30pm 22.9 NE 14 18 1018.4 - 0.0 - Partly cloudy 10 - - - -
19/04:00pm 23.8 ENE 13 18 1018.6 - 0.0 - - 10 - - - -
19/03:30pm 23.8 ENE 14 19 1018.9 - 0.0 - Partly cloudy 10 - - - -
19/03:00pm 23.3 ENE 15 19 1019.3 - 0.0 - - 10 - - - -
19/02:30pm 23.5 ENE 16 20 1019.9 - 0.0 - - 10 - - - -
19/02:00pm 23.0 ENE 16 19 1020.5 - 0.0 - - 10 - - - -
19/01:30pm 22.5 ENE 15 19 1020.9 - 0.0 - - 10 - - - -
19/01:00pm 22.5 ENE 16 19 1021.3 - 0.0 - - 10 - - - -
19/12:30pm 22.8 ENE 17 20 1021.5 - 0.0 - - 10 - - - -
19/12:00pm 22.9 NE 17 20 1021.7 - 0.0 - - 10 - - - -
19/11:30am 23.1 ENE 16 19 1022.3 - 0.0 - - 10 - - - -
19/11:00am 22.8 NE 14 17 1022.9 - 0.0 - - 10 - - - -
19/10:30am 22.8 NE 10 15 1023.4 - 0.0 - - 10 - - - -
19/10:00am 22.8 NNE 9 12 1023.7 - 0.0 - - 10 - - - -
19/09:30am 21.7 NNW 10 15 1024.1 - 0.0 - - 10 - - - -
19/09:00am 21.3 N 7 12 1024.4 - 0.0 - - 10 - - - -
19/08:30am 20.1 NNE 6 8 1024.5 - 0.0 - - 10 - - - -
19/08:00am 19.5 NNE 6 8 1024.7 - 0.0 - - 10 - - - -
19/07:30am 17.6 NNW 1 5 1024.7 - 0.0 - - 10 - - - -
19/07:00am 14.5 W 4 5 1024.7 - 0.0 - - 10 - - - -
19/06:30am 13.1 W 5 6 1024.6 - 0.0 - - 10 - - - -
19/06:00am 13.5 WNW 4 5 1024.5 - 0.0 - - 7 - - - -
19/05:30am 13.7 NW 3 5 1024.5 - 0.0 - - 9 - - - -
19/05:00am 13.2 NNW 3 4 1024.5 - 0.0 - - 10 - - - -
19/04:30am 13.3 CALM 0 0 1024.5 - 0.0 - - 10 - - - -
19/04:00am 13.3 W 1 3 1024.5 - 0.0 - - 9 - - - -
19/03:30am 13.1 W 2 4 1024.7 - 0.0 - - 10 - - - -
19/03:00am 13.6 WNW 2 4 1024.8 - 0.0 - - 10 - - - -
19/02:30am 14.6 CALM 0 4 1025.0 - 0.0 - - 10 - - - -
19/02:00am 15.7 NW 1 3 1025.2 - 0.0 - - 10 - - - -
19/01:30am 16.4 CALM 0 3 1025.5 - 0.0 - - 10 - - - -
19/01:00am 17.0 N 3 5 1025.8 - 0.0 - - 10 - - - -
19/12:30am 18.2 N 4 6 1026.1 - 0.0 - - 10 - - - -
19/12:00am 18.5 NE 5 8 1026.3 - 0.0 - - 10 - - - -
 
Date/Time
EDT
Temp
°C
Wind Pressure Rain since
9am
mm
Weather Cloud Vis
km
Sea
Height
m
Swell
Dir  Spd
kts
Gust
kts
hPa Trend Height
m
Period
s
Dir
18/11:30pm 18.7 NNE 5 7 1026.4 - 0.0 - Partly cloudy 10 - - - -
18/11:00pm 18.8 NNE 4 6 1026.4 - 0.0 - Partly cloudy 10 - - - -
18/10:30pm 19.1 NNE 5 7 1026.4 - 0.0 - Partly cloudy 10 - - - -
18/10:00pm 19.1 N 6 8 1026.7 - 0.0 - Partly cloudy 10 - - - -
18/09:30pm 19.3 N 6 9 1026.7 - 0.0 - - 10 - - - -
18/09:00pm 19.5 NNE 7 11 1026.6 - 0.0 - Mostly clear 10 - - - -
18/08:30pm 19.6 N 10 15 1026.4 - 0.0 - - 10 - - - -
18/08:00pm 19.8 NNE 11 17 1026.1 - 0.0 - Partly cloudy 10 - - - -
18/07:30pm 20.1 NNE 13 20 1025.8 - 0.0 - Cloudy 10 - - - -
18/07:00pm 20.4 NNE 14 19 1025.7 - 0.0 - Cloudy 10 - - - -
18/06:30pm 20.6 NNE 16 24 1025.4 - 0.0 - Partly cloudy 10 - - - -
18/06:01pm 20.8 NNE 16 27 1025.3 - 0.0 - - 10 - - - -
18/06:00pm 20.9 NNE 17 25 1025.3 - 0.0 - - 10 - - - -
18/05:30pm 21.4 NE 18 25 1025.2 - 0.0 - - 10 - - - -
18/05:00pm 21.5 NE 19 25 1025.1 - 0.0 - - 10 - - - -
18/04:30pm 21.8 NE 18 28 1024.9 - 0.0 - - 10 - - - -
18/04:07pm 22.2 NE 19 29 1025.1 - 0.0 - - 10 - - - -
18/04:00pm 22.2 NE 20 29 1025.0 - 0.0 - - 10 - - - -
18/03:30pm 22.6 NE 20 29 1025.1 - 0.0 - - 10 - - - -
18/03:00pm 22.6 NE 20 31 1025.2 - 0.0 - - 10 - - - -
18/02:30pm 22.9 NE 20 30 1025.6 - 0.0 - - 10 - - - -
18/02:25pm 22.6 NE 20 30 1025.6 - 0.0 - - 10 - - - -
18/02:00pm 22.3 NE 20 27 1025.9 - 0.0 - - 10 - - - -
18/01:30pm 22.0 NE 19 24 1026.2 - 0.0 - - 10 - - - -
18/01:00pm 22.8 NE 18 24 1026.4 - 0.0 - Partly cloudy 10 - - - -
18/12:30pm 22.5 NE 16 22 1026.6 - 0.0 - - 10 - - - -
18/12:00pm 21.9 NE 17 24 1027.0 - 0.0 - Mostly clear 10 - - - -
18/11:30am 22.0 NE 15 22 1027.5 - 0.0 - Partly cloudy 10 - - - -
18/11:00am 21.8 NE 15 21 1027.7 - 0.0 - Partly cloudy 10 - - - -
18/10:30am 22.1 NE 15 21 1028.0 - 0.0 - Partly cloudy 10 - - - -
18/10:00am 22.3 NE 14 19 1028.2 - 0.0 - Partly cloudy 10 - - - -
18/09:30am 21.7 NNE 8 13 1028.3 - 0.0 - Partly cloudy 10 - - - -
18/09:00am 21.7 N 9 13 1028.3 - 0.0 - Cloudy 10 - - - -
18/08:30am 20.7 N 9 13 1028.4 - 0.0 - Partly cloudy 10 - - - -
18/08:00am 18.0 CALM 0 0 1028.4 - 0.0 - Partly cloudy 10 - - - -
18/07:30am 15.4 W 1 3 1028.2 - 0.0 - Partly cloudy 10 - - - -
18/07:00am 13.2 CALM 0 0 1027.9 - 0.0 - Partly cloudy 10 - - - -
18/06:30am 12.5 CALM 0 0 1027.7 - 0.0 - - 10 - - - -
18/06:00am 11.8 W 1 3 1027.2 - 0.0 - Mostly clear 10 - - - -
18/05:30am 12.8 CALM 0 0 1027.0 - 0.0 - Partly cloudy 10 - - - -
18/05:00am 12.7 CALM 0 0 1026.8 - 0.0 - - 10 - - - -
18/04:30am 12.7 CALM 0 0 1026.7 - 0.0 - Partly cloudy 10 - - - -
18/04:00am 11.9 CALM 0 3 1026.9 - 0.0 - Partly cloudy 10 - - - -
18/03:30am 11.1 W 3 4 1027.1 - 0.0 - Partly cloudy 10 - - - -
18/03:00am 11.2 CALM 0 0 1027.4 - 0.0 - Partly cloudy 10 - - - -
18/02:30am 12.0 WSW 2 5 1027.4 - 0.0 - Partly cloudy 10 - - - -
18/02:00am 11.7 CALM 0 0 1027.7 - 0.0 - Partly cloudy 10 - - - -
18/01:30am 11.8 W 3 4 1028.1 - 0.0 - - 10 - - - -
18/01:00am 12.4 CALM 0 0 1028.5 - 0.0 - - 10 - - - -
18/12:30am 12.8 CALM 0 0 1028.9 - 0.0 - - 10 - - - -
18/12:00am 13.1 CALM 0 0 1029.0 - 0.0 - - 10 - - - -
 
Date/Time
EDT
Temp
°C
Wind Pressure Rain since
9am
mm
Weather Cloud Vis
km
Sea
Height
m
Swell
Dir  Spd
kts
Gust
kts
hPa Trend Height
m
Period
s
Dir
17/11:30pm 13.8 W 1 4 1029.0 - 0.0 - Partly cloudy 10 - - - -
17/11:00pm 13.5 NW 1 4 1029.0 - 0.0 - Partly cloudy 10 - - - -
17/10:30pm 13.7 W 4 5 1028.9 - 0.0 - - 10 - - - -
17/10:00pm 14.4 WNW 5 6 1028.8 - 0.0 - - 10 - - - -
17/09:30pm 16.7 NW 5 6 1028.5 - 0.0 - - 10 - - - -
17/09:00pm 18.9 N 7 9 1028.0 - 0.0 - - 10 - - - -
17/08:30pm 19.3 NNE 9 14 1027.5 - 0.0 - - 10 - - - -
17/08:00pm 19.7 NNE 12 15 1027.0 - 0.0 - - 10 - - - -
17/07:30pm 20.1 NNE 11 17 1026.8 - 0.0 - - 10 - - - -
17/07:00pm 20.3 NE 12 17 1026.7 - 0.0 - - 10 - - - -
17/06:30pm 20.7 NE 15 21 1026.5 - 0.0 - - 10 - - - -
17/06:00pm 21.2 NE 15 23 1026.4 - 0.0 - - 10 - - - -
17/05:30pm 21.8 NE 15 21 1026.3 - 0.0 - - 10 - - - -
17/05:00pm 21.8 NE 15 22 1026.0 - 0.0 - - 10 - - - -
17/04:30pm 22.0 NE 14 20 1026.1 - 0.0 - - 10 - - - -
17/04:00pm 22.6 NE 15 20 1026.1 - 0.0 - - 10 - - - -
17/03:30pm 21.9 NE 16 21 1026.2 - 0.0 - - 10 - - - -
17/03:00pm 23.6 NE 15 20 1026.2 - 0.0 - - 10 - - - -
17/02:30pm 22.2 NE 13 18 1026.2 - 0.0 - - 10 - - - -

Other Formats:

Comma delimited format used in spreadsheet applications
http://www.bom.gov.au/fwo/IDN60701/IDN60701.95748.axf

JavaScript Object Notation format (JSON) in row-major order
http://www.bom.gov.au/fwo/IDN60701/IDN60701.95748.json